sensor_id;sensor_type;location;lat;lon;timestamp;P1;durP1;ratioP1;P2;durP2;ratioP2
28577;SDS011;15769;52.248;15.818;2023-02-11T00:00:20;84.13;;;31.15;;
28577;SDS011;15769;52.248;15.818;2023-02-11T00:05:42;67.97;;;29.38;;
28577;SDS011;15769;52.248;15.818;2023-02-11T00:10:45;66.97;;;28.63;;
28577;SDS011;15769;52.248;15.818;2023-02-11T00:15:53;74.68;;;33.08;;
28577;SDS011;15769;52.248;15.818;2023-02-11T00:20:56;61.67;;;27.63;;
28577;SDS011;15769;52.248;15.818;2023-02-11T00:25:58;63.20;;;27.20;;
28577;SDS011;15769;52.248;15.818;2023-02-11T00:31:01;87.88;;;34.78;;
28577;SDS011;15769;52.248;15.818;2023-02-11T00:36:04;81.53;;;33.25;;
28577;SDS011;15769;52.248;15.818;2023-02-11T00:41:08;69.32;;;28.15;;
28577;SDS011;15769;52.248;15.818;2023-02-11T00:46:10;83.35;;;34.17;;
28577;SDS011;15769;52.248;15.818;2023-02-11T00:51:13;71.00;;;28.23;;
28577;SDS011;15769;52.248;15.818;2023-02-11T00:56:16;80.93;;;34.95;;
28577;SDS011;15769;52.248;15.818;2023-02-11T01:01:19;63.10;;;27.83;;
28577;SDS011;15769;52.248;15.818;2023-02-11T01:06:21;58.00;;;25.70;;
28577;SDS011;15769;52.248;15.818;2023-02-11T01:11:24;66.33;;;27.70;;
28577;SDS011;15769;52.248;15.818;2023-02-11T01:16:27;59.22;;;28.08;;
28577;SDS011;15769;52.248;15.818;2023-02-11T01:21:29;65.10;;;28.27;;
28577;SDS011;15769;52.248;15.818;2023-02-11T01:26:33;64.15;;;28.35;;
28577;SDS011;15769;52.248;15.818;2023-02-11T01:31:36;60.92;;;26.48;;
28577;SDS011;15769;52.248;15.818;2023-02-11T01:36:39;59.95;;;28.55;;
28577;SDS011;15769;52.248;15.818;2023-02-11T01:41:42;51.13;;;25.73;;
28577;SDS011;15769;52.248;15.818;2023-02-11T01:46:44;50.78;;;24.15;;
28577;SDS011;15769;52.248;15.818;2023-02-11T01:51:52;41.23;;;18.83;;
28577;SDS011;15769;52.248;15.818;2023-02-11T01:56:58;94.15;;;35.85;;
28577;SDS011;15769;52.248;15.818;2023-02-11T02:02:28;87.93;;;34.05;;
28577;SDS011;15769;52.248;15.818;2023-02-11T02:07:41;86.43;;;33.70;;
28577;SDS011;15769;52.248;15.818;2023-02-11T02:13:06;73.05;;;30.55;;
28577;SDS011;15769;52.248;15.818;2023-02-11T02:29:01;62.20;;;28.75;;
28577;SDS011;15769;52.248;15.818;2023-02-11T02:34:22;66.35;;;30.00;;
28577;SDS011;15769;52.248;15.818;2023-02-11T02:39:33;55.93;;;25.77;;
28577;SDS011;15769;52.248;15.818;2023-02-11T02:44:40;60.95;;;29.05;;
28577;SDS011;15769;52.248;15.818;2023-02-11T02:49:50;61.10;;;27.95;;
28577;SDS011;15769;52.248;15.818;2023-02-11T02:55:12;57.53;;;26.67;;
28577;SDS011;15769;52.248;15.818;2023-02-11T03:00:36;61.90;;;27.63;;
28577;SDS011;15769;52.248;15.818;2023-02-11T03:05:50;60.78;;;28.48;;
28577;SDS011;15769;52.248;15.818;2023-02-11T03:11:07;55.05;;;26.40;;
28577;SDS011;15769;52.248;15.818;2023-02-11T03:16:18;59.17;;;28.15;;
28577;SDS011;15769;52.248;15.818;2023-02-11T03:26:45;55.20;;;25.75;;
28577;SDS011;15769;52.248;15.818;2023-02-11T03:42:50;55.45;;;26.67;;
28577;SDS011;15769;52.248;15.818;2023-02-11T03:48:10;52.25;;;24.83;;
28577;SDS011;15769;52.248;15.818;2023-02-11T03:53:15;59.40;;;28.88;;
28577;SDS011;15769;52.248;15.818;2023-02-11T03:58:20;56.05;;;26.30;;
28577;SDS011;15769;52.248;15.818;2023-02-11T04:03:23;60.97;;;28.75;;
28577;SDS011;15769;52.248;15.818;2023-02-11T04:08:26;58.50;;;29.13;;
28577;SDS011;15769;52.248;15.818;2023-02-11T04:13:30;49.42;;;25.25;;
28577;SDS011;15769;52.248;15.818;2023-02-11T04:18:37;65.80;;;29.65;;
28577;SDS011;15769;52.248;15.818;2023-02-11T04:23:41;63.28;;;29.48;;
28577;SDS011;15769;52.248;15.818;2023-02-11T04:28:44;74.25;;;34.55;;
28577;SDS011;15769;52.248;15.818;2023-02-11T04:38:49;86.22;;;34.88;;
28577;SDS011;15769;52.248;15.818;2023-02-11T04:43:54;71.40;;;31.35;;
28577;SDS011;15769;52.248;15.818;2023-02-11T04:48:58;75.53;;;31.77;;
28577;SDS011;15769;52.248;15.818;2023-02-11T04:54:01;84.70;;;36.35;;
28577;SDS011;15769;52.248;15.818;2023-02-11T05:04:08;76.30;;;34.67;;
28577;SDS011;15769;52.248;15.818;2023-02-11T05:09:11;82.10;;;34.07;;
28577;SDS011;15769;52.248;15.818;2023-02-11T05:14:14;67.57;;;32.38;;
28577;SDS011;15769;52.248;15.818;2023-02-11T05:19:27;73.70;;;33.57;;
28577;SDS011;15769;52.248;15.818;2023-02-11T05:24:31;70.43;;;34.42;;
28577;SDS011;15769;52.248;15.818;2023-02-11T05:30:09;67.72;;;29.52;;
28577;SDS011;15769;52.248;15.818;2023-02-11T05:35:20;67.05;;;30.67;;
28577;SDS011;15769;52.248;15.818;2023-02-11T05:40:22;68.47;;;32.13;;
28577;SDS011;15769;52.248;15.818;2023-02-11T05:45:26;67.47;;;31.90;;
28577;SDS011;15769;52.248;15.818;2023-02-11T05:50:29;72.53;;;32.85;;
28577;SDS011;15769;52.248;15.818;2023-02-11T05:55:32;76.80;;;34.65;;
28577;SDS011;15769;52.248;15.818;2023-02-11T06:00:37;64.93;;;29.33;;
28577;SDS011;15769;52.248;15.818;2023-02-11T06:05:42;76.22;;;33.50;;
28577;SDS011;15769;52.248;15.818;2023-02-11T06:10:46;79.63;;;35.13;;
28577;SDS011;15769;52.248;15.818;2023-02-11T06:15:58;85.07;;;36.17;;
28577;SDS011;15769;52.248;15.818;2023-02-11T06:21:07;89.80;;;38.42;;
28577;SDS011;15769;52.248;15.818;2023-02-11T06:26:15;68.28;;;31.25;;
28577;SDS011;15769;52.248;15.818;2023-02-11T06:31:19;84.13;;;36.63;;
28577;SDS011;15769;52.248;15.818;2023-02-11T06:36:22;72.57;;;31.67;;
28577;SDS011;15769;52.248;15.818;2023-02-11T06:41:24;77.05;;;34.95;;
28577;SDS011;15769;52.248;15.818;2023-02-11T06:46:29;70.72;;;31.77;;
28577;SDS011;15769;52.248;15.818;2023-02-11T06:51:31;70.47;;;31.92;;
28577;SDS011;15769;52.248;15.818;2023-02-11T06:56:35;84.03;;;37.03;;
28577;SDS011;15769;52.248;15.818;2023-02-11T07:01:37;73.53;;;33.05;;
28577;SDS011;15769;52.248;15.818;2023-02-11T07:07:03;81.28;;;37.33;;
28577;SDS011;15769;52.248;15.818;2023-02-11T07:12:08;79.65;;;36.67;;
28577;SDS011;15769;52.248;15.818;2023-02-11T07:17:11;81.95;;;36.05;;
28577;SDS011;15769;52.248;15.818;2023-02-11T07:22:20;70.15;;;33.67;;
28577;SDS011;15769;52.248;15.818;2023-02-11T07:27:22;85.28;;;35.75;;
28577;SDS011;15769;52.248;15.818;2023-02-11T07:32:25;79.95;;;34.42;;
28577;SDS011;15769;52.248;15.818;2023-02-11T07:37:27;85.47;;;36.33;;
28577;SDS011;15769;52.248;15.818;2023-02-11T07:42:32;98.03;;;42.28;;
28577;SDS011;15769;52.248;15.818;2023-02-11T07:47:36;75.55;;;34.00;;
28577;SDS011;15769;52.248;15.818;2023-02-11T07:52:39;69.38;;;30.55;;
28577;SDS011;15769;52.248;15.818;2023-02-11T07:57:42;79.15;;;37.13;;
28577;SDS011;15769;52.248;15.818;2023-02-11T08:02:46;79.25;;;35.83;;
28577;SDS011;15769;52.248;15.818;2023-02-11T08:07:50;72.05;;;32.47;;
28577;SDS011;15769;52.248;15.818;2023-02-11T08:12:54;83.13;;;39.13;;
28577;SDS011;15769;52.248;15.818;2023-02-11T08:17:56;75.13;;;33.00;;
28577;SDS011;15769;52.248;15.818;2023-02-11T08:22:59;80.13;;;36.20;;
28577;SDS011;15769;52.248;15.818;2023-02-11T08:28:03;79.03;;;35.60;;
28577;SDS011;15769;52.248;15.818;2023-02-11T08:33:31;72.45;;;34.60;;
28577;SDS011;15769;52.248;15.818;2023-02-11T08:38:53;88.22;;;40.92;;
28577;SDS011;15769;52.248;15.818;2023-02-11T08:44:20;90.35;;;40.63;;
28577;SDS011;15769;52.248;15.818;2023-02-11T08:49:28;91.63;;;40.50;;
28577;SDS011;15769;52.248;15.818;2023-02-11T08:59:34;83.78;;;37.75;;
28577;SDS011;15769;52.248;15.818;2023-02-11T09:04:39;82.05;;;38.08;;
28577;SDS011;15769;52.248;15.818;2023-02-11T09:09:45;86.15;;;41.42;;
28577;SDS011;15769;52.248;15.818;2023-02-11T09:14:47;81.88;;;38.05;;
28577;SDS011;15769;52.248;15.818;2023-02-11T09:20:00;91.82;;;44.22;;
28577;SDS011;15769;52.248;15.818;2023-02-11T09:25:04;74.03;;;35.92;;
28577;SDS011;15769;52.248;15.818;2023-02-11T09:30:10;79.32;;;35.78;;
28577;SDS011;15769;52.248;15.818;2023-02-11T09:35:15;87.53;;;39.42;;
28577;SDS011;15769;52.248;15.818;2023-02-11T09:40:21;89.00;;;41.88;;
28577;SDS011;15769;52.248;15.818;2023-02-11T09:50:33;70.75;;;31.77;;
28577;SDS011;15769;52.248;15.818;2023-02-11T09:55:47;82.90;;;37.63;;
28577;SDS011;15769;52.248;15.818;2023-02-11T10:07:14;74.88;;;36.97;;
28577;SDS011;15769;52.248;15.818;2023-02-11T10:25:24;86.68;;;40.90;;
28577;SDS011;15769;52.248;15.818;2023-02-11T10:31:09;79.97;;;36.95;;
28577;SDS011;15769;52.248;15.818;2023-02-11T10:37:05;73.85;;;33.28;;
28577;SDS011;15769;52.248;15.818;2023-02-11T10:42:22;68.78;;;31.45;;
28577;SDS011;15769;52.248;15.818;2023-02-11T10:47:27;79.07;;;36.80;;
28577;SDS011;15769;52.248;15.818;2023-02-11T10:52:39;82.70;;;39.95;;
28577;SDS011;15769;52.248;15.818;2023-02-11T10:57:49;73.57;;;35.47;;
28577;SDS011;15769;52.248;15.818;2023-02-11T11:03:02;77.43;;;36.53;;
28577;SDS011;15769;52.248;15.818;2023-02-11T11:08:10;74.85;;;35.05;;
28577;SDS011;15769;52.248;15.818;2023-02-11T11:18:32;95.25;;;46.08;;
28577;SDS011;15769;52.248;15.818;2023-02-11T11:24:28;72.03;;;39.22;;
28577;SDS011;15769;52.248;15.818;2023-02-11T11:29:52;71.72;;;35.53;;
28577;SDS011;15769;52.248;15.818;2023-02-11T11:35:00;72.30;;;36.72;;
28577;SDS011;15769;52.248;15.818;2023-02-11T11:40:22;65.85;;;33.28;;
28577;SDS011;15769;52.248;15.818;2023-02-11T11:45:36;65.47;;;32.58;;
28577;SDS011;15769;52.248;15.818;2023-02-11T11:50:49;75.10;;;37.35;;
28577;SDS011;15769;52.248;15.818;2023-02-11T11:56:37;76.78;;;37.47;;
28577;SDS011;15769;52.248;15.818;2023-02-11T12:13:39;74.82;;;37.03;;
28577;SDS011;15769;52.248;15.818;2023-02-11T12:29:29;73.95;;;39.92;;
28577;SDS011;15769;52.248;15.818;2023-02-11T12:46:22;96.15;;;54.17;;
28577;SDS011;15769;52.248;15.818;2023-02-11T12:51:52;73.18;;;38.80;;
28577;SDS011;15769;52.248;15.818;2023-02-11T12:57:21;65.85;;;38.08;;
28577;SDS011;15769;52.248;15.818;2023-02-11T13:13:34;57.50;;;28.17;;
28577;SDS011;15769;52.248;15.818;2023-02-11T13:24:14;61.33;;;29.73;;
28577;SDS011;15769;52.248;15.818;2023-02-11T13:39:59;54.05;;;29.23;;
28577;SDS011;15769;52.248;15.818;2023-02-11T13:45:33;65.97;;;42.17;;
28577;SDS011;15769;52.248;15.818;2023-02-11T13:50:46;57.38;;;30.45;;
28577;SDS011;15769;52.248;15.818;2023-02-11T13:55:51;44.03;;;24.02;;
28577;SDS011;15769;52.248;15.818;2023-02-11T14:00:55;71.25;;;39.38;;
28577;SDS011;15769;52.248;15.818;2023-02-11T14:11:51;47.65;;;26.92;;
28577;SDS011;15769;52.248;15.818;2023-02-11T14:17:42;39.67;;;24.40;;
28577;SDS011;15769;52.248;15.818;2023-02-11T14:22:48;43.95;;;26.45;;
28577;SDS011;15769;52.248;15.818;2023-02-11T14:44:05;51.65;;;27.50;;
28577;SDS011;15769;52.248;15.818;2023-02-11T14:54:40;53.08;;;26.80;;
28577;SDS011;15769;52.248;15.818;2023-02-11T14:59:56;67.32;;;30.98;;
28577;SDS011;15769;52.248;15.818;2023-02-11T15:05:20;54.67;;;25.70;;
28577;SDS011;15769;52.248;15.818;2023-02-11T15:10:42;51.33;;;22.30;;
28577;SDS011;15769;52.248;15.818;2023-02-11T15:15:46;41.57;;;18.53;;
28577;SDS011;15769;52.248;15.818;2023-02-11T15:20:52;28.42;;;15.63;;
28577;SDS011;15769;52.248;15.818;2023-02-11T15:25:55;30.00;;;17.83;;
28577;SDS011;15769;52.248;15.818;2023-02-11T15:31:23;31.48;;;18.08;;
28577;SDS011;15769;52.248;15.818;2023-02-11T15:36:27;41.78;;;22.20;;
28577;SDS011;15769;52.248;15.818;2023-02-11T15:41:36;53.22;;;32.72;;
28577;SDS011;15769;52.248;15.818;2023-02-11T15:46:39;42.80;;;23.98;;
28577;SDS011;15769;52.248;15.818;2023-02-11T15:51:44;34.37;;;20.63;;
28577;SDS011;15769;52.248;15.818;2023-02-11T15:56:48;40.25;;;21.10;;
28577;SDS011;15769;52.248;15.818;2023-02-11T16:01:52;33.33;;;17.90;;
28577;SDS011;15769;52.248;15.818;2023-02-11T16:06:55;37.05;;;19.85;;
28577;SDS011;15769;52.248;15.818;2023-02-11T16:12:02;42.93;;;22.07;;
28577;SDS011;15769;52.248;15.818;2023-02-11T16:17:12;119.65;;;71.80;;
28577;SDS011;15769;52.248;15.818;2023-02-11T16:27:33;230.15;;;102.05;;
28577;SDS011;15769;52.248;15.818;2023-02-11T16:32:42;127.97;;;59.15;;
28577;SDS011;15769;52.248;15.818;2023-02-11T16:37:44;104.45;;;45.13;;
28577;SDS011;15769;52.248;15.818;2023-02-11T16:42:49;72.85;;;36.88;;
28577;SDS011;15769;52.248;15.818;2023-02-11T16:47:53;66.38;;;29.85;;
28577;SDS011;15769;52.248;15.818;2023-02-11T16:52:57;60.90;;;30.42;;
28577;SDS011;15769;52.248;15.818;2023-02-11T16:58:00;61.65;;;27.88;;
28577;SDS011;15769;52.248;15.818;2023-02-11T17:03:04;60.53;;;28.30;;
28577;SDS011;15769;52.248;15.818;2023-02-11T17:08:08;53.22;;;24.23;;
28577;SDS011;15769;52.248;15.818;2023-02-11T17:13:11;45.15;;;24.13;;
28577;SDS011;15769;52.248;15.818;2023-02-11T17:18:14;40.25;;;21.20;;
28577;SDS011;15769;52.248;15.818;2023-02-11T17:23:17;363.70;;;122.90;;
28577;SDS011;15769;52.248;15.818;2023-02-11T17:28:20;441.33;;;142.10;;
28577;SDS011;15769;52.248;15.818;2023-02-11T17:33:23;202.63;;;68.53;;
28577;SDS011;15769;52.248;15.818;2023-02-11T17:38:25;119.20;;;43.08;;
28577;SDS011;15769;52.248;15.818;2023-02-11T17:43:28;61.90;;;26.85;;
28577;SDS011;15769;52.248;15.818;2023-02-11T17:48:31;41.90;;;17.30;;
28577;SDS011;15769;52.248;15.818;2023-02-11T17:53:33;35.00;;;15.20;;
28577;SDS011;15769;52.248;15.818;2023-02-11T17:58:38;29.13;;;13.80;;
28577;SDS011;15769;52.248;15.818;2023-02-11T18:03:47;55.85;;;22.70;;
28577;SDS011;15769;52.248;15.818;2023-02-11T18:08:59;45.88;;;22.08;;
28577;SDS011;15769;52.248;15.818;2023-02-11T18:14:05;30.35;;;15.43;;
28577;SDS011;15769;52.248;15.818;2023-02-11T18:19:09;22.40;;;15.10;;
28577;SDS011;15769;52.248;15.818;2023-02-11T18:24:13;29.20;;;21.17;;
28577;SDS011;15769;52.248;15.818;2023-02-11T18:29:16;33.58;;;20.40;;
28577;SDS011;15769;52.248;15.818;2023-02-11T18:34:19;44.13;;;17.40;;
28577;SDS011;15769;52.248;15.818;2023-02-11T18:39:21;35.88;;;14.02;;
28577;SDS011;15769;52.248;15.818;2023-02-11T18:44:25;32.95;;;15.55;;
28577;SDS011;15769;52.248;15.818;2023-02-11T18:49:28;29.40;;;13.85;;
28577;SDS011;15769;52.248;15.818;2023-02-11T18:54:31;31.45;;;17.33;;
28577;SDS011;15769;52.248;15.818;2023-02-11T18:59:33;42.92;;;21.10;;
28577;SDS011;15769;52.248;15.818;2023-02-11T19:04:36;56.88;;;26.30;;
28577;SDS011;15769;52.248;15.818;2023-02-11T19:09:38;50.35;;;21.27;;
28577;SDS011;15769;52.248;15.818;2023-02-11T19:14:41;34.55;;;14.52;;
28577;SDS011;15769;52.248;15.818;2023-02-11T19:19:43;32.95;;;14.88;;
28577;SDS011;15769;52.248;15.818;2023-02-11T19:24:46;30.13;;;14.80;;
28577;SDS011;15769;52.248;15.818;2023-02-11T19:29:48;27.38;;;11.60;;
28577;SDS011;15769;52.248;15.818;2023-02-11T19:34:51;20.57;;;10.23;;
28577;SDS011;15769;52.248;15.818;2023-02-11T19:39:54;24.27;;;13.53;;
28577;SDS011;15769;52.248;15.818;2023-02-11T19:44:58;46.83;;;14.90;;
28577;SDS011;15769;52.248;15.818;2023-02-11T19:50:01;37.63;;;11.38;;
28577;SDS011;15769;52.248;15.818;2023-02-11T19:55:04;28.95;;;10.25;;
28577;SDS011;15769;52.248;15.818;2023-02-11T20:00:07;33.63;;;12.80;;
28577;SDS011;15769;52.248;15.818;2023-02-11T20:05:15;51.95;;;16.55;;
28577;SDS011;15769;52.248;15.818;2023-02-11T20:10:17;53.30;;;16.08;;
28577;SDS011;15769;52.248;15.818;2023-02-11T20:15:20;48.95;;;17.20;;
28577;SDS011;15769;52.248;15.818;2023-02-11T20:20:22;71.60;;;21.70;;
28577;SDS011;15769;52.248;15.818;2023-02-11T20:25:25;52.95;;;19.70;;
28577;SDS011;15769;52.248;15.818;2023-02-11T20:30:28;49.45;;;15.95;;
28577;SDS011;15769;52.248;15.818;2023-02-11T20:35:31;45.05;;;16.05;;
28577;SDS011;15769;52.248;15.818;2023-02-11T20:40:33;86.05;;;31.65;;
28577;SDS011;15769;52.248;15.818;2023-02-11T20:46:19;412.77;;;109.95;;
28577;SDS011;15769;52.248;15.818;2023-02-11T20:52:10;140.50;;;42.70;;
28577;SDS011;15769;52.248;15.818;2023-02-11T20:58:00;60.72;;;18.10;;
28577;SDS011;15769;52.248;15.818;2023-02-11T21:03:17;55.40;;;21.45;;
28577;SDS011;15769;52.248;15.818;2023-02-11T21:08:43;49.72;;;20.58;;
28577;SDS011;15769;52.248;15.818;2023-02-11T21:13:54;40.97;;;15.18;;
28577;SDS011;15769;52.248;15.818;2023-02-11T21:19:50;43.00;;;17.25;;
28577;SDS011;15769;52.248;15.818;2023-02-11T21:25:01;30.73;;;11.57;;
28577;SDS011;15769;52.248;15.818;2023-02-11T21:30:11;22.70;;;10.23;;
28577;SDS011;15769;52.248;15.818;2023-02-11T21:35:23;22.30;;;10.55;;
28577;SDS011;15769;52.248;15.818;2023-02-11T21:40:27;16.30;;;7.82;;
28577;SDS011;15769;52.248;15.818;2023-02-11T21:45:30;22.27;;;10.38;;
28577;SDS011;15769;52.248;15.818;2023-02-11T21:50:41;23.30;;;10.32;;
28577;SDS011;15769;52.248;15.818;2023-02-11T21:55:48;25.83;;;11.10;;
28577;SDS011;15769;52.248;15.818;2023-02-11T22:01:00;21.42;;;8.55;;
28577;SDS011;15769;52.248;15.818;2023-02-11T22:06:10;16.07;;;7.30;;
28577;SDS011;15769;52.248;15.818;2023-02-11T22:11:17;16.58;;;7.25;;
28577;SDS011;15769;52.248;15.818;2023-02-11T22:16:20;17.63;;;7.82;;
28577;SDS011;15769;52.248;15.818;2023-02-11T22:21:23;20.87;;;8.03;;
28577;SDS011;15769;52.248;15.818;2023-02-11T22:26:44;50.50;;;13.60;;
28577;SDS011;15769;52.248;15.818;2023-02-11T22:31:47;52.58;;;26.70;;
28577;SDS011;15769;52.248;15.818;2023-02-11T22:36:51;33.87;;;15.57;;
28577;SDS011;15769;52.248;15.818;2023-02-11T22:41:54;32.90;;;12.95;;
28577;SDS011;15769;52.248;15.818;2023-02-11T22:46:58;35.95;;;14.30;;
28577;SDS011;15769;52.248;15.818;2023-02-11T22:52:10;58.73;;;24.07;;
28577;SDS011;15769;52.248;15.818;2023-02-11T22:57:14;53.28;;;18.92;;
28577;SDS011;15769;52.248;15.818;2023-02-11T23:02:17;50.78;;;16.02;;
28577;SDS011;15769;52.248;15.818;2023-02-11T23:07:24;35.72;;;11.88;;
28577;SDS011;15769;52.248;15.818;2023-02-11T23:12:28;49.28;;;17.95;;
28577;SDS011;15769;52.248;15.818;2023-02-11T23:17:30;49.95;;;16.10;;
28577;SDS011;15769;52.248;15.818;2023-02-11T23:22:32;56.08;;;18.85;;
28577;SDS011;15769;52.248;15.818;2023-02-11T23:27:35;56.08;;;17.45;;
28577;SDS011;15769;52.248;15.818;2023-02-11T23:32:38;85.57;;;28.02;;
28577;SDS011;15769;52.248;15.818;2023-02-11T23:37:41;126.45;;;31.88;;
28577;SDS011;15769;52.248;15.818;2023-02-11T23:42:44;78.47;;;22.65;;
28577;SDS011;15769;52.248;15.818;2023-02-11T23:47:48;69.38;;;21.92;;
28577;SDS011;15769;52.248;15.818;2023-02-11T23:52:52;112.70;;;32.05;;
28577;SDS011;15769;52.248;15.818;2023-02-11T23:57:54;125.80;;;28.85;;
